createdAt,value
2023-05-04T00:00:37.993Z,1.80
2023-05-04T00:03:32.080Z,1.33
2023-05-04T00:06:25.608Z,1.45
2023-05-04T00:09:19.195Z,1.40
2023-05-04T00:12:12.536Z,1.42
2023-05-04T00:15:06.736Z,1.40
2023-05-04T00:18:00.971Z,1.50
2023-05-04T00:20:54.541Z,1.45
2023-05-04T00:23:47.683Z,1.30
2023-05-04T00:26:41.154Z,1.30
2023-05-04T00:29:34.669Z,1.40
2023-05-04T00:32:28.264Z,1.50
2023-05-04T00:35:22.802Z,1.60
2023-05-04T00:38:16.602Z,1.80
2023-05-04T00:41:09.407Z,1.40
2023-05-04T00:44:05.263Z,1.58
2023-05-04T00:46:59.134Z,1.60
2023-05-04T00:49:53.635Z,1.55
2023-05-04T00:52:49.822Z,1.80
2023-05-04T00:55:42.935Z,1.42
2023-05-04T00:58:36.432Z,1.42
2023-05-04T01:01:29.685Z,1.30
2023-05-04T01:04:22.461Z,1.60
2023-05-04T01:07:21.366Z,1.30
2023-05-04T01:10:22.676Z,1.60
2023-05-04T01:13:18.425Z,1.30
2023-05-04T01:16:12.309Z,1.48
2023-05-04T01:19:06.256Z,1.15
2023-05-04T01:22:01.518Z,1.50
2023-05-04T01:24:54.553Z,1.40
2023-05-04T01:27:51.075Z,1.83
2023-05-04T01:30:46.801Z,1.40
2023-05-04T01:33:40.297Z,1.40
2023-05-04T01:36:34.482Z,1.50
2023-05-04T01:39:29.913Z,1.30
2023-05-04T01:42:22.993Z,1.48
2023-05-04T01:45:15.844Z,1.60
2023-05-04T01:48:08.803Z,1.40
2023-05-04T01:51:01.820Z,1.77
2023-05-04T01:53:54.704Z,1.55
2023-05-04T01:56:49.214Z,1.50
2023-05-04T01:59:42.668Z,1.40
2023-05-04T02:02:35.874Z,1.60
2023-05-04T02:05:28.862Z,1.60
2023-05-04T02:08:21.996Z,1.25
2023-05-04T02:11:16.243Z,1.52
2023-05-04T02:14:10.848Z,1.50
2023-05-04T02:17:04.041Z,1.33
2023-05-04T02:19:56.841Z,1.30
2023-05-04T02:22:50.029Z,1.50
2023-05-04T02:25:42.904Z,1.45
2023-05-04T02:28:35.469Z,1.30
2023-05-04T02:31:30.395Z,1.52
2023-05-04T02:34:23.783Z,1.88
2023-05-04T02:37:16.703Z,1.20
2023-05-04T02:40:10.841Z,1.25
2023-05-04T02:43:03.675Z,1.63
2023-05-04T02:45:57.041Z,1.63
2023-05-04T02:48:51.139Z,1.60
2023-05-04T02:51:44.636Z,1.40
2023-05-04T02:54:38.950Z,1.52
2023-05-04T02:57:32.110Z,1.58
2023-05-04T03:00:26.145Z,1.50
2023-05-04T03:03:19.787Z,1.48
2023-05-04T03:06:14.075Z,1.50
2023-05-04T03:09:06.567Z,1.20
2023-05-04T03:11:59.832Z,1.55
2023-05-04T03:14:54.423Z,1.48
2023-05-04T03:17:47.911Z,1.55
2023-05-04T03:20:41.022Z,1.80
2023-05-04T03:23:35.331Z,1.52
2023-05-04T03:26:28.796Z,1.33
2023-05-04T03:29:21.804Z,1.23
2023-05-04T03:32:14.943Z,1.52
2023-05-04T03:35:09.095Z,1.55
2023-05-04T03:38:01.468Z,1.33
2023-05-04T03:40:56.330Z,1.60
2023-05-04T03:43:50.106Z,1.80
2023-05-04T03:46:42.960Z,1.45
2023-05-04T03:49:36.280Z,1.58
2023-05-04T03:52:29.958Z,1.48
2023-05-04T03:55:23.186Z,1.60
2023-05-04T03:58:18.013Z,1.67
2023-05-04T04:01:10.844Z,1.60
2023-05-04T04:04:04.145Z,1.67
2023-05-04T04:06:58.253Z,1.42
2023-05-04T04:09:52.295Z,1.30
2023-05-04T04:12:45.753Z,1.48
2023-05-04T04:15:42.682Z,1.73
2023-05-04T04:18:36.131Z,1.55
2023-05-04T04:21:28.957Z,1.40
2023-05-04T04:24:21.913Z,1.30
2023-05-04T04:27:14.889Z,1.65
2023-05-04T04:30:08.959Z,1.80
2023-05-04T04:33:03.527Z,1.65
2023-05-04T04:35:57.245Z,1.70
2023-05-04T04:38:51.310Z,1.65
2023-05-04T04:41:44.824Z,1.63
2023-05-04T04:44:37.856Z,1.40
2023-05-04T04:47:30.819Z,1.60
2023-05-04T04:50:25.273Z,1.98
2023-05-04T04:53:19.155Z,1.60
2023-05-04T04:56:11.845Z,1.88
2023-05-04T04:59:04.950Z,1.50
2023-05-04T05:01:58.572Z,1.60
2023-05-04T05:04:52.163Z,1.83
2023-05-04T05:07:46.178Z,1.52
2023-05-04T05:10:38.856Z,1.70
2023-05-04T05:13:32.084Z,1.40
2023-05-04T05:16:24.850Z,1.77
2023-05-04T05:19:18.000Z,2.00
2023-05-04T05:22:11.228Z,1.80
2023-05-04T05:25:07.051Z,1.63
2023-05-04T05:27:59.679Z,1.35
2023-05-04T05:30:52.989Z,1.95
2023-05-04T05:33:46.150Z,1.48
2023-05-04T05:36:38.958Z,1.55
2023-05-04T05:39:32.183Z,1.90
2023-05-04T05:42:26.347Z,1.25
2023-05-04T05:45:19.740Z,1.80
2023-05-04T05:48:12.922Z,1.70
2023-05-04T05:51:06.071Z,1.67
2023-05-04T05:53:59.032Z,1.65
2023-05-04T05:56:52.201Z,1.85
2023-05-04T05:59:46.586Z,1.83
2023-05-04T06:02:40.518Z,1.65
2023-05-04T06:05:35.304Z,1.88
2023-05-04T06:08:28.930Z,1.92
2023-05-04T06:11:22.289Z,1.98
2023-05-04T06:14:15.679Z,1.88
2023-05-04T06:17:10.770Z,2.00
2023-05-04T06:20:04.974Z,1.90
2023-05-04T06:22:58.516Z,2.15
2023-05-04T06:25:51.878Z,1.90
2023-05-04T06:28:44.849Z,2.00
2023-05-04T06:31:37.843Z,2.20
2023-05-04T06:34:32.352Z,1.92
2023-05-04T06:37:26.454Z,1.80
2023-05-04T06:40:19.953Z,1.70
2023-05-04T06:43:13.250Z,1.98
2023-05-04T06:46:07.206Z,1.80
2023-05-04T06:48:59.925Z,1.98
2023-05-04T06:51:54.706Z,2.00
2023-05-04T06:54:48.272Z,2.40
2023-05-04T06:57:40.973Z,1.80
2023-05-04T07:00:33.804Z,1.67
2023-05-04T07:03:28.102Z,2.20
2023-05-04T07:06:21.394Z,1.90
2023-05-04T07:09:17.791Z,1.77
2023-05-04T07:12:10.760Z,2.30
2023-05-04T07:15:04.157Z,2.05
2023-05-04T07:17:57.441Z,2.00
2023-05-04T07:20:51.350Z,1.52
2023-05-04T07:23:45.192Z,1.70
2023-05-04T07:26:39.210Z,1.83
2023-05-04T07:29:32.127Z,1.80
2023-05-04T07:32:25.418Z,1.77
2023-05-04T07:35:19.513Z,1.60
2023-05-04T07:38:12.807Z,1.92
2023-05-04T07:41:07.186Z,1.73
2023-05-04T07:44:05.419Z,2.08
2023-05-04T07:46:59.356Z,1.55
2023-05-04T07:49:52.862Z,2.05
2023-05-04T07:52:47.790Z,1.60
2023-05-04T07:55:41.151Z,1.63
2023-05-04T07:58:33.910Z,1.70
2023-05-04T08:01:28.528Z,1.80
2023-05-04T08:04:22.287Z,1.63
2023-05-04T08:07:17.110Z,1.88
2023-05-04T08:10:11.160Z,1.98
2023-05-04T08:13:04.284Z,2.10
2023-05-04T08:16:01.038Z,1.90
2023-05-04T08:18:56.187Z,2.15
2023-05-04T08:21:49.458Z,1.98
2023-05-04T08:24:43.204Z,1.90
2023-05-04T08:27:36.777Z,1.95
2023-05-04T08:30:31.218Z,1.75
2023-05-04T08:33:24.404Z,2.30
2023-05-04T08:36:19.525Z,1.80
2023-05-04T08:39:13.361Z,2.05
2023-05-04T08:42:05.887Z,2.17
2023-05-04T08:44:59.755Z,2.13
2023-05-04T08:47:53.549Z,1.80
2023-05-04T08:50:47.733Z,1.85
2023-05-04T08:53:46.547Z,2.22
2023-05-04T08:56:42.810Z,2.38
2023-05-04T08:59:37.235Z,1.85
2023-05-04T09:02:31.400Z,1.90
2023-05-04T09:05:25.121Z,2.08
2023-05-04T09:08:20.497Z,2.03
2023-05-04T09:11:15.444Z,2.00
2023-05-04T09:14:08.935Z,2.35
2023-05-04T09:17:02.263Z,2.08
2023-05-04T09:20:01.542Z,2.55
2023-05-04T09:23:07.104Z,2.13
2023-05-04T09:26:00.258Z,2.15
2023-05-04T09:28:54.575Z,2.17
2023-05-04T09:31:49.757Z,2.17
2023-05-04T09:34:50.598Z,2.22
2023-05-04T09:37:45.582Z,2.40
2023-05-04T09:40:41.228Z,1.92
2023-05-04T09:43:39.678Z,2.40
2023-05-04T09:46:36.494Z,2.50
2023-05-04T09:49:32.704Z,2.30
2023-05-04T09:52:28.337Z,2.10
2023-05-04T09:55:22.199Z,2.30
2023-05-04T09:58:16.907Z,2.50
2023-05-04T10:01:11.364Z,2.35
2023-05-04T10:04:07.033Z,2.33
2023-05-04T10:07:01.670Z,3.00
2023-05-04T10:09:56.113Z,2.65
2023-05-04T10:12:49.210Z,2.58
2023-05-04T10:15:54.902Z,2.70
2023-05-04T10:19:19.225Z,2.65
2023-05-04T10:22:21.963Z,2.30
2023-05-04T10:25:30.808Z,2.40
2023-05-04T10:28:36.416Z,2.88
2023-05-04T10:31:38.677Z,2.85
2023-05-04T10:34:35.115Z,2.95
2023-05-04T10:37:27.909Z,2.60
2023-05-04T10:40:22.286Z,3.05
2023-05-04T10:43:24.375Z,2.60
2023-05-04T10:46:22.250Z,2.88
2023-05-04T10:49:18.308Z,2.17
2023-05-04T10:52:16.154Z,2.85
2023-05-04T10:55:10.491Z,2.42
2023-05-04T10:58:04.145Z,2.50
2023-05-04T11:00:57.325Z,2.78
2023-05-04T11:03:50.549Z,2.60
2023-05-04T11:06:44.389Z,2.50
2023-05-04T11:09:40.035Z,2.60
2023-05-04T11:12:33.584Z,2.75
2023-05-04T11:15:27.164Z,2.35
2023-05-04T11:18:28.924Z,2.20
2023-05-04T11:21:25.711Z,2.40
2023-05-04T11:24:19.114Z,2.42
2023-05-04T11:27:24.079Z,2.17
2023-05-04T11:30:17.356Z,2.38
2023-05-04T11:33:12.798Z,2.50
2023-05-04T11:36:07.019Z,2.33
2023-05-04T11:39:00.939Z,2.20
2023-05-04T11:41:54.395Z,2.40
2023-05-04T11:44:48.761Z,2.42
2023-05-04T11:47:42.751Z,2.72
2023-05-04T11:50:36.734Z,2.67
2023-05-04T11:53:38.582Z,2.33
2023-05-04T11:56:41.710Z,2.33
2023-05-04T11:59:35.063Z,2.20
2023-05-04T12:02:29.757Z,2.80
2023-05-04T12:05:23.508Z,2.70
2023-05-04T12:08:27.247Z,2.45
2023-05-04T12:11:25.579Z,2.22
2023-05-04T12:14:19.262Z,2.60
2023-05-04T12:17:12.160Z,2.20
2023-05-04T12:20:08.208Z,2.40
2023-05-04T12:23:08.529Z,2.28
2023-05-04T12:26:02.089Z,2.50
2023-05-04T12:28:55.099Z,2.30
2023-05-04T12:31:48.559Z,2.67
2023-05-04T12:34:42.496Z,2.67
2023-05-04T12:37:37.881Z,2.70
2023-05-04T12:40:32.371Z,2.40
2023-05-04T12:43:25.420Z,2.65
2023-05-04T12:46:21.474Z,2.70
2023-05-04T12:49:15.589Z,2.80
2023-05-04T12:52:09.778Z,2.33
2023-05-04T12:55:05.004Z,2.20
2023-05-04T12:57:58.306Z,2.70
2023-05-04T13:00:51.761Z,2.40
2023-05-04T13:03:45.320Z,2.50
2023-05-04T13:06:38.351Z,2.42
2023-05-04T13:09:31.553Z,2.60
2023-05-04T13:12:25.534Z,2.60
2023-05-04T13:15:18.935Z,2.50
2023-05-04T13:18:12.844Z,2.80
2023-05-04T13:21:06.500Z,2.72
2023-05-04T13:24:00.266Z,3.40
2023-05-04T13:26:53.607Z,2.53
2023-05-04T13:29:47.624Z,2.50
2023-05-04T13:32:40.955Z,2.80
2023-05-04T13:35:34.204Z,2.30
2023-05-04T13:38:27.459Z,2.72
2023-05-04T13:41:20.704Z,2.78
2023-05-04T13:44:14.702Z,2.40
2023-05-04T13:47:10.069Z,2.90
2023-05-04T13:50:04.030Z,2.97
2023-05-04T13:52:57.262Z,3.00
2023-05-04T13:55:50.960Z,2.90
2023-05-04T13:58:44.261Z,2.35
2023-05-04T14:01:38.085Z,2.28
2023-05-04T14:04:33.315Z,2.30
2023-05-04T14:07:26.913Z,2.40
2023-05-04T14:10:20.560Z,2.50
2023-05-04T14:13:13.460Z,2.80
2023-05-04T14:16:06.853Z,2.55
2023-05-04T14:19:00.962Z,2.42
2023-05-04T14:21:55.782Z,2.65
2023-05-04T14:24:51.048Z,2.83
2023-05-04T14:27:44.471Z,2.92
2023-05-04T14:30:37.636Z,2.63
2023-05-04T14:33:30.571Z,2.70
2023-05-04T14:36:23.583Z,2.80
2023-05-04T14:39:17.813Z,2.47
2023-05-04T14:42:11.672Z,2.13
2023-05-04T14:45:05.205Z,2.92
2023-05-04T14:47:58.651Z,2.83
2023-05-04T14:50:51.458Z,2.40
2023-05-04T14:53:46.846Z,3.00
2023-05-04T14:56:43.978Z,2.63
2023-05-04T14:59:40.464Z,2.72
2023-05-04T15:02:36.307Z,2.78
2023-05-04T15:05:30.043Z,2.53
2023-05-04T15:08:25.374Z,2.78
2023-05-04T15:11:20.026Z,2.60
2023-05-04T15:14:16.329Z,2.50
2023-05-04T15:17:11.369Z,2.67
2023-05-04T15:20:06.844Z,2.20
2023-05-04T15:23:05.665Z,2.35
2023-05-04T15:26:01.977Z,2.20
2023-05-04T15:28:55.162Z,2.70
2023-05-04T15:31:50.171Z,3.03
2023-05-04T15:34:50.689Z,2.58
2023-05-04T15:37:51.072Z,2.20
2023-05-04T15:40:44.967Z,2.35
2023-05-04T15:43:41.217Z,2.58
2023-05-04T15:46:37.822Z,2.60
2023-05-04T15:49:34.123Z,2.13
2023-05-04T15:52:28.288Z,2.58
2023-05-04T15:55:26.406Z,2.33
2023-05-04T15:58:23.483Z,2.65
2023-05-04T16:01:19.107Z,2.85
2023-05-04T16:04:15.231Z,2.60
2023-05-04T16:07:11.948Z,2.47
2023-05-04T16:10:09.775Z,2.35
2023-05-04T16:13:05.605Z,2.72
2023-05-04T16:16:00.165Z,2.33
2023-05-04T16:18:55.426Z,2.75
2023-05-04T16:21:52.362Z,2.20
2023-05-04T16:24:46.595Z,2.58
2023-05-04T16:27:39.414Z,2.60
2023-05-04T16:30:34.092Z,2.50
2023-05-04T16:33:27.274Z,2.55
2023-05-04T16:36:20.660Z,2.25
2023-05-04T16:39:13.594Z,2.65
2023-05-04T16:42:07.739Z,2.58
2023-05-04T16:45:00.918Z,2.30
2023-05-04T16:47:54.625Z,2.20
2023-05-04T16:50:47.706Z,2.30
2023-05-04T16:53:40.814Z,2.40
2023-05-04T16:56:34.452Z,2.35
2023-05-04T16:59:29.226Z,2.20
2023-05-04T17:02:22.822Z,2.22
2023-05-04T17:05:16.686Z,2.35
2023-05-04T17:08:11.368Z,2.00
2023-05-04T17:11:04.875Z,2.40
2023-05-04T17:13:58.657Z,2.10
2023-05-04T17:16:52.750Z,2.08
2023-05-04T17:19:46.079Z,2.20
2023-05-04T17:22:39.336Z,2.20
2023-05-04T17:25:34.025Z,2.33
2023-05-04T17:28:27.259Z,2.22
2023-05-04T17:31:23.801Z,2.03
2023-05-04T17:34:18.757Z,1.92
2023-05-04T17:37:11.893Z,2.20
2023-05-04T17:40:06.802Z,2.40
2023-05-04T17:43:01.266Z,2.22
2023-05-04T17:45:55.980Z,2.22
2023-05-04T17:48:52.088Z,2.67
2023-05-04T17:51:49.009Z,2.70
2023-05-04T17:54:42.636Z,2.30
2023-05-04T17:57:35.619Z,2.40
2023-05-04T18:00:28.959Z,2.38
2023-05-04T18:03:22.716Z,1.98
2023-05-04T18:06:16.398Z,2.80
2023-05-04T18:09:10.758Z,2.17
2023-05-04T18:12:04.081Z,2.25
2023-05-04T18:14:57.373Z,3.00
2023-05-04T18:17:50.893Z,2.45
2023-05-04T18:20:44.358Z,2.45
2023-05-04T18:23:37.726Z,3.00
2023-05-04T18:26:31.886Z,2.78
2023-05-04T18:29:25.578Z,2.65
2023-05-04T18:32:18.782Z,2.42
2023-05-04T18:35:11.764Z,2.60
2023-05-04T18:38:04.600Z,2.45
2023-05-04T18:40:57.975Z,2.33
2023-05-04T18:43:53.209Z,2.70
2023-05-04T18:46:46.434Z,2.22
2023-05-04T18:49:39.544Z,2.75
2023-05-04T18:52:33.601Z,2.05
2023-05-04T18:55:26.661Z,2.10
2023-05-04T18:58:19.971Z,2.33
2023-05-04T19:01:15.034Z,2.20
2023-05-04T19:04:08.869Z,2.15
2023-05-04T19:07:02.695Z,2.45
2023-05-04T19:09:55.650Z,2.40
2023-05-04T19:12:48.730Z,1.92
2023-05-04T19:15:41.548Z,2.38
2023-05-04T19:18:36.443Z,2.10
2023-05-04T19:21:29.655Z,2.35
2023-05-04T19:24:22.625Z,2.42
2023-05-04T19:27:15.886Z,2.28
2023-05-04T19:30:09.737Z,2.45
2023-05-04T19:33:02.758Z,2.20
2023-05-04T19:35:57.301Z,2.30
2023-05-04T19:38:50.503Z,2.17
2023-05-04T19:41:43.870Z,2.53
2023-05-04T19:44:36.673Z,2.65
2023-05-04T19:47:29.849Z,2.63
2023-05-04T19:50:22.834Z,2.50
2023-05-04T19:53:17.128Z,3.00
2023-05-04T19:56:10.712Z,3.08
2023-05-04T19:59:03.746Z,2.70
2023-05-04T20:01:58.186Z,2.83
2023-05-04T20:04:52.292Z,2.88
2023-05-04T20:07:45.677Z,3.05
2023-05-04T20:10:40.889Z,3.08
2023-05-04T20:13:33.849Z,2.65
2023-05-04T20:16:27.169Z,2.70
2023-05-04T20:19:20.773Z,2.95
2023-05-04T20:22:13.960Z,2.97
2023-05-04T20:25:08.454Z,2.67
2023-05-04T20:28:03.060Z,2.67
2023-05-04T20:30:57.304Z,2.80
2023-05-04T20:33:50.644Z,3.08
2023-05-04T20:36:43.604Z,2.90
2023-05-04T20:39:36.827Z,3.20
2023-05-04T20:42:29.973Z,2.67
2023-05-04T20:45:25.348Z,3.13
2023-05-04T20:48:18.736Z,2.95
2023-05-04T20:51:14.325Z,3.33
2023-05-04T20:54:08.970Z,3.60
2023-05-04T20:57:01.565Z,3.25
2023-05-04T20:59:54.452Z,3.03
2023-05-04T21:02:49.344Z,3.28
2023-05-04T21:05:42.783Z,3.00
2023-05-04T21:08:35.717Z,2.80
2023-05-04T21:11:28.604Z,3.22
2023-05-04T21:14:21.817Z,3.03
2023-05-04T21:17:14.974Z,3.20
2023-05-04T21:20:11.041Z,3.15
2023-05-04T21:23:05.185Z,2.63
2023-05-04T21:26:02.951Z,3.30
2023-05-04T21:28:55.704Z,2.80
2023-05-04T21:31:48.803Z,2.60
2023-05-04T21:34:41.637Z,2.80
2023-05-04T21:37:36.330Z,3.10
2023-05-04T21:40:29.858Z,2.90
2023-05-04T21:43:22.980Z,2.67
2023-05-04T21:46:16.349Z,2.72
2023-05-04T21:49:09.748Z,3.72
2023-05-04T21:52:03.039Z,2.90
2023-05-04T21:54:58.438Z,2.65
2023-05-04T21:57:52.001Z,2.70
2023-05-04T22:00:45.268Z,2.78
2023-05-04T22:03:38.883Z,3.10
2023-05-04T22:06:31.451Z,3.10
2023-05-04T22:09:24.598Z,2.60
2023-05-04T22:12:19.111Z,3.00
2023-05-04T22:15:14.127Z,2.83
2023-05-04T22:18:07.656Z,2.97
2023-05-04T22:21:00.889Z,2.67
2023-05-04T22:23:53.896Z,2.67
2023-05-04T22:26:46.827Z,2.83
2023-05-04T22:29:41.357Z,2.88
2023-05-04T22:32:35.498Z,2.85
2023-05-04T22:35:31.122Z,2.58
2023-05-04T22:38:24.673Z,3.22
2023-05-04T22:41:17.907Z,2.75
2023-05-04T22:44:11.330Z,2.50
2023-05-04T22:47:06.043Z,3.25
2023-05-04T22:49:58.754Z,2.92
2023-05-04T22:52:51.926Z,2.78
2023-05-04T22:55:44.592Z,2.92
2023-05-04T22:58:37.784Z,2.75
2023-05-04T23:01:32.484Z,3.03
2023-05-04T23:04:27.593Z,2.70
2023-05-04T23:07:21.145Z,2.90
2023-05-04T23:10:14.966Z,2.50
2023-05-04T23:13:08.067Z,3.10
2023-05-04T23:16:02.452Z,2.70
2023-05-04T23:18:56.007Z,2.65
2023-05-04T23:21:49.819Z,3.03
2023-05-04T23:24:43.252Z,2.97
2023-05-04T23:27:36.665Z,2.97
2023-05-04T23:30:30.113Z,2.80
2023-05-04T23:33:24.046Z,2.70
2023-05-04T23:36:17.003Z,2.80
2023-05-04T23:39:11.049Z,2.63
2023-05-04T23:42:03.527Z,2.90
2023-05-04T23:44:57.105Z,3.25
2023-05-04T23:47:50.013Z,2.70
2023-05-04T23:50:52.007Z,2.80
2023-05-04T23:53:44.748Z,2.85
2023-05-04T23:56:39.127Z,2.88
2023-05-04T23:59:32.816Z,2.70
